Terminal Aerodrome Forecast
Issued by NWS

Home | Current Version | Previous Version | Text Only | Print | Product List | Glossary On
Versions: 1 2 3 4 5 6 7 8 9 10 11 12 13 14 15 16 17 18 19 20 21 22 23 24 25 26 27
048
FTUS42 KMHX 011403 AAB
TAFOAJ
TAF AMD
KOAJ 011403Z 0114/0212 17011G18KT P6SM BKN040
      TEMPO 0114/0116 BKN025
     FM020600 20007KT P6SM VCSH SCT007 BKN030
      AMD LTD TO CLD VIS AND WIND=

USA.gov is the U.S. government's official web portal to all federal, state and local government web resources and services.